Time;durP1;ratioP1;P1;durP2;ratioP2;P2;SDS_P1;SDS_P2;PMS_P1;PMS_P2;Temp;Humidity;BMP_temperature;BMP_pressure;BME280_temperature;BME280_humidity;BME280_pressure;Samples;Min_cycle;Max_cycle;Signal;HPM_P1;HPM_P2
2023/12/04 00:02:41;;;;;;;26.83;11.40;;;;;;;3.35;78.32;100443.16;8324488;28;20089;-57
2023/12/04 00:06:42;;;;;;;27.33;12.35;;;;;;;3.31;78.36;100437.19;8366464;28;20509;-58
2023/12/04 00:10:42;;;;;;;25.02;11.82;;;;;;;3.28;78.51;100426.69;8380653;28;20047;-56
2023/12/04 00:14:43;;;;;;;24.65;11.15;;;;;;;3.24;79.13;100408.28;8356706;28;20056;-57
2023/12/04 00:18:43;;;;;;;23.15;11.60;;;;;;;3.26;78.59;100427.75;8355369;28;20068;-55
2023/12/04 00:22:44;;;;;;;25.25;12.20;;;;;;;3.26;78.68;100422.41;8355784;28;20045;-56
2023/12/04 00:26:44;;;;;;;25.92;12.82;;;;;;;3.15;79.00;100420.41;8357009;28;20045;-56
2023/12/04 00:30:44;;;;;;;23.77;10.32;;;;;;;3.21;79.04;100416.50;8359649;28;22169;-57
2023/12/04 00:34:45;;;;;;;28.75;12.30;;;;;;;3.11;79.34;100412.69;8355112;28;20152;-56
2023/12/04 00:38:45;;;;;;;26.33;11.77;;;;;;;3.06;79.63;100399.63;8355010;28;20080;-56
2023/12/04 00:42:46;;;;;;;22.52;10.50;;;;;;;2.95;80.33;100394.09;8355523;28;20494;-55
2023/12/04 00:46:46;;;;;;;26.10;10.88;;;;;;;2.97;79.72;100388.66;8353290;28;20061;-56
2023/12/04 00:50:47;;;;;;;27.98;10.50;;;;;;;2.92;79.56;100380.94;8377896;28;20051;-55
2023/12/04 00:54:47;;;;;;;19.55;9.90;;;;;;;2.96;79.47;100381.59;8355267;28;20478;-56
2023/12/04 00:58:49;;;;;;;23.98;10.77;;;;;;;2.85;79.30;100358.25;8342830;28;20102;-54
2023/12/04 01:02:49;;;;;;;24.08;10.63;;;;;;;2.94;79.10;100373.69;8353628;28;20045;-55
2023/12/04 01:06:51;;;;;;;23.63;10.68;;;;;;;2.93;79.36;100361.28;8354337;28;20172;-54
2023/12/04 01:10:51;;;;;;;24.30;10.73;;;;;;;2.93;79.47;100371.13;8310935;28;20042;-56
2023/12/04 01:14:52;;;;;;;20.52;10.27;;;;;;;2.84;79.75;100367.19;8266419;28;20163;-55
2023/12/04 01:18:52;;;;;;;20.17;10.85;;;;;;;2.80;79.49;100357.66;8257015;28;20041;-58
2023/12/04 01:22:53;;;;;;;20.90;10.30;;;;;;;2.75;79.61;100353.59;8253536;28;20270;-56
2023/12/04 01:26:53;;;;;;;25.77;11.57;;;;;;;2.81;79.72;100346.03;8289440;28;20527;-56
2023/12/04 01:30:54;;;;;;;22.90;11.27;;;;;;;2.85;79.49;100344.91;8258419;28;20045;-57
2023/12/04 01:34:54;;;;;;;21.98;9.63;;;;;;;2.86;79.47;100335.06;8260842;28;20777;-57
2023/12/04 01:38:55;;;;;;;21.75;9.52;;;;;;;3.05;78.76;100346.31;8296050;28;20128;-57
2023/12/04 01:42:55;;;;;;;19.45;9.88;;;;;;;2.95;78.88;100339.81;8249463;28;20566;-57
2023/12/04 01:46:56;;;;;;;22.35;8.93;;;;;;;3.00;78.37;100335.94;8256961;28;20663;-56
2023/12/04 01:50:58;;;;;;;21.92;9.43;;;;;;;3.04;78.37;100329.44;8251399;28;20693;-57
2023/12/04 01:54:58;;;;;;;19.98;9.27;;;;;;;2.95;78.37;100332.69;8254486;28;20364;-57
2023/12/04 01:58:59;;;;;;;21.23;10.90;;;;;;;2.95;78.09;100327.34;8274820;28;20037;-57
2023/12/04 02:03:01;;;;;;;20.25;8.40;;;;;;;2.93;78.53;100328.41;8287197;28;20126;-55
2023/12/04 02:07:02;;;;;;;21.13;9.63;;;;;;;2.88;77.95;100323.34;8252952;28;20550;-57
2023/12/04 02:11:03;;;;;;;16.20;8.63;;;;;;;2.98;76.83;100316.47;8252946;28;20731;-55
2023/12/04 02:15:04;;;;;;;17.33;8.63;;;;;;;3.10;75.89;100326.38;8277935;28;20538;-57
2023/12/04 02:19:11;;;;;;;15.98;8.23;;;;;;;3.23;74.95;100316.59;8295498;28;20071;-57
2023/12/04 02:23:12;;;;;;;16.52;8.82;;;;;;;3.17;75.04;100317.00;8296075;28;20718;-56
2023/12/04 02:27:36;;;;;;;18.98;8.52;;;;;;;3.25;74.35;100297.81;8295316;28;20131;-56
2023/12/04 02:31:39;;;;;;;15.02;7.63;;;;;;;3.18;74.32;100297.38;8330453;28;20037;-56
2023/12/04 02:35:41;;;;;;;21.13;8.77;;;;;;;3.08;74.72;100290.06;8367374;28;20045;-55
2023/12/04 02:39:42;;;;;;;18.92;8.75;;;;;;;3.00;74.76;100287.88;8369872;28;20171;-55
2023/12/04 02:43:43;;;;;;;20.08;8.70;;;;;;;3.05;74.85;100280.41;8368286;28;20052;-56
2023/12/04 02:47:43;;;;;;;20.90;8.35;;;;;;;3.04;74.62;100289.38;8357041;28;20566;-56
2023/12/04 02:51:44;;;;;;;18.73;8.68;;;;;;;2.87;75.23;100280.75;8353777;28;20043;-58
2023/12/04 02:55:44;;;;;;;19.77;8.95;;;;;;;2.87;75.92;100286.91;8353732;28;20045;-55
2023/12/04 02:59:45;;;;;;;22.83;9.52;;;;;;;2.90;75.91;100269.88;8352741;28;20518;-56
2023/12/04 03:03:45;;;;;;;19.30;9.15;;;;;;;2.72;76.33;100271.91;8350976;28;20564;-54
2023/12/04 03:07:46;;;;;;;17.50;8.80;;;;;;;2.71;76.52;100264.00;8358019;28;20073;-58
2023/12/04 03:11:46;;;;;;;19.50;8.25;;;;;;;2.79;75.81;100251.88;8361682;28;20048;-58
2023/12/04 03:15:47;;;;;;;19.33;9.02;;;;;;;2.81;75.71;100244.59;8358949;28;20381;-56
2023/12/04 03:19:47;;;;;;;16.55;8.70;;;;;;;2.71;75.62;100237.31;8307975;28;20448;-54
2023/12/04 03:23:47;;;;;;;18.63;8.38;;;;;;;2.78;76.18;100234.16;8301403;28;20057;-54
2023/12/04 03:27:48;;;;;;;18.98;8.98;;;;;;;2.75;75.64;100228.16;8300995;28;20131;-55
2023/12/04 03:31:48;;;;;;;24.25;9.85;;;;;;;2.79;76.16;100222.50;8300190;28;20060;-54
2023/12/04 03:35:49;;;;;;;22.25;10.13;;;;;;;2.71;75.89;100211.47;8302751;28;20329;-54
2023/12/04 03:39:51;;;;;;;17.48;8.98;;;;;;;2.72;75.70;100207.88;8301301;28;20427;-54
2023/12/04 03:43:51;;;;;;;18.67;9.48;;;;;;;2.75;76.26;100209.47;8324525;28;20565;-54
2023/12/04 03:47:51;;;;;;;19.75;8.60;;;;;;;2.74;76.55;100203.25;8283678;28;20716;-54
2023/12/04 03:51:52;;;;;;;20.15;8.95;;;;;;;2.64;76.95;100196.81;8240679;28;20110;-56
2023/12/04 03:55:53;;;;;;;22.42;10.35;;;;;;;2.64;76.98;100199.47;8301707;28;20041;-53
2023/12/04 03:59:53;;;;;;;18.83;9.75;;;;;;;2.54;77.07;100201.03;8299286;28;20033;-54
2023/12/04 04:03:53;;;;;;;20.88;9.75;;;;;;;2.46;77.48;100200.66;8278651;28;20426;-55
2023/12/04 04:07:54;;;;;;;19.25;9.40;;;;;;;2.45;77.73;100176.75;8261102;28;20141;-54
2023/12/04 04:11:54;;;;;;;21.40;9.52;;;;;;;2.50;77.43;100180.81;8301924;28;20034;-56
2023/12/04 04:15:55;;;;;;;19.35;9.65;;;;;;;2.49;77.51;100173.78;8304462;28;20169;-55
2023/12/04 04:19:55;;;;;;;21.23;10.10;;;;;;;2.42;77.28;100156.47;8303458;28;20072;-54
2023/12/04 04:23:56;;;;;;;19.98;9.68;;;;;;;2.44;77.66;100169.72;8302188;28;20040;-55
2023/12/04 04:27:56;;;;;;;21.67;9.45;;;;;;;2.43;76.93;100168.84;8333644;28;20289;-55
2023/12/04 04:31:57;;;;;;;18.55;9.60;;;;;;;2.39;76.87;100155.81;8302728;28;20051;-55
2023/12/04 04:35:57;;;;;;;20.55;9.93;;;;;;;2.43;75.97;100168.84;8305155;28;20063;-55
2023/12/04 04:39:57;;;;;;;19.67;9.88;;;;;;;2.46;75.73;100162.44;8315731;28;20039;-56
2023/12/04 04:43:58;;;;;;;23.17;9.05;;;;;;;2.51;76.16;100155.88;8333927;28;20096;-55
2023/12/04 04:47:58;;;;;;;22.25;10.05;;;;;;;2.47;75.57;100148.19;8297066;28;20217;-56
2023/12/04 04:51:59;;;;;;;20.30;9.27;;;;;;;2.46;76.30;100155.31;8303500;28;20112;-56
2023/12/04 04:55:59;;;;;;;22.77;10.63;;;;;;;2.46;75.94;100141.09;8299733;28;20052;-54
2023/12/04 05:00:00;;;;;;;18.70;9.48;;;;;;;2.47;76.05;100159.69;8303132;28;20095;-54
2023/12/04 05:04:00;;;;;;;20.05;10.32;;;;;;;2.48;76.16;100150.75;8311809;28;20288;-54
2023/12/04 05:08:01;;;;;;;20.38;10.27;;;;;;;2.46;76.09;100125.97;8314685;28;20353;-54
2023/12/04 05:12:01;;;;;;;20.92;10.68;;;;;;;2.45;75.57;100140.28;8331400;28;20048;-57
2023/12/04 05:16:02;;;;;;;21.67;10.70;;;;;;;2.57;75.57;100138.63;8366848;28;20068;-57
2023/12/04 05:20:03;;;;;;;20.70;10.85;;;;;;;2.59;75.19;100137.56;8355710;28;20178;-55
2023/12/04 05:24:03;;;;;;;23.60;10.48;;;;;;;2.68;75.22;100131.63;8355367;28;20051;-55
2023/12/04 05:28:04;;;;;;;21.65;10.70;;;;;;;2.67;75.71;100135.25;8371676;28;20371;-55
2023/12/04 05:32:05;;;;;;;19.88;10.70;;;;;;;2.65;75.30;100126.47;8356100;28;20034;-54
2023/12/04 05:36:06;;;;;;;21.40;10.07;;;;;;;2.74;74.89;100131.22;8364537;28;20048;-53
2023/12/04 05:40:07;;;;;;;22.52;9.82;;;;;;;2.82;74.52;100112.88;8363481;28;20557;-54
2023/12/04 05:44:08;;;;;;;18.38;9.10;;;;;;;2.84;74.34;100113.63;8355925;28;20037;-55
2023/12/04 05:48:08;;;;;;;21.15;10.27;;;;;;;2.86;74.57;100098.38;8340437;28;20131;-54
2023/12/04 05:52:09;;;;;;;22.40;10.52;;;;;;;2.91;74.10;100095.41;8353461;28;20403;-54
2023/12/04 05:56:10;;;;;;;25.30;12.55;;;;;;;2.79;74.39;100101.56;8347187;28;20042;-54
2023/12/04 06:00:12;;;;;;;22.55;10.93;;;;;;;2.77;75.18;100074.97;8354644;28;20039;-54
2023/12/04 06:04:12;;;;;;;20.77;10.50;;;;;;;2.83;74.89;100095.91;8352911;28;20040;-52
2023/12/04 06:08:13;;;;;;;26.50;11.27;;;;;;;2.81;74.76;100099.66;8357702;28;20039;-54
2023/12/04 06:12:13;;;;;;;19.38;9.55;;;;;;;2.78;75.26;100084.72;8349848;28;20056;-56
2023/12/04 06:16:14;;;;;;;20.25;10.48;;;;;;;2.73;75.44;100067.25;8360684;28;20419;-54
2023/12/04 06:20:14;;;;;;;21.38;11.05;;;;;;;2.69;75.02;100060.44;8353620;28;20049;-54
2023/12/04 06:24:15;;;;;;;21.70;10.40;;;;;;;2.74;74.48;100051.16;8321167;28;20114;-56
2023/12/04 06:28:16;;;;;;;18.40;8.95;;;;;;;2.85;74.29;100037.94;8292555;28;20052;-56
2023/12/04 06:32:17;;;;;;;22.45;10.30;;;;;;;2.82;74.39;100039.97;8297441;28;20450;-56
2023/12/04 06:36:17;;;;;;;21.88;10.82;;;;;;;2.75;74.63;100036.88;8310680;28;20486;-58
2023/12/04 06:40:18;;;;;;;23.10;11.75;;;;;;;2.79;74.38;100024.16;8322776;28;20476;-55
2023/12/04 06:44:19;;;;;;;22.23;9.68;;;;;;;2.88;74.28;100020.88;8304947;28;20567;-53
2023/12/04 06:48:20;;;;;;;27.30;11.93;;;;;;;2.90;74.08;100011.78;8371193;28;20067;-56
2023/12/04 06:52:20;;;;;;;18.60;10.18;;;;;;;2.83;74.62;100007.84;8370918;28;20558;-56
2023/12/04 06:56:21;;;;;;;20.77;11.55;;;;;;;2.94;74.29;100015.97;8330276;28;20770;-54
2023/12/04 07:00:21;;;;;;;25.85;12.50;;;;;;;2.85;74.64;100005.06;8320860;28;20543;-56
2023/12/04 07:04:22;;;;;;;25.75;13.02;;;;;;;2.84;74.95;100019.38;8299605;28;20057;-55
2023/12/04 07:08:22;;;;;;;27.00;14.20;;;;;;;2.77;75.02;100008.25;8305680;28;20040;-53
2023/12/04 07:12:22;;;;;;;29.55;12.48;;;;;;;2.84;75.22;100003.34;8301724;28;20439;-54
2023/12/04 07:16:23;;;;;;;27.60;13.27;;;;;;;2.81;75.50;100008.91;8301310;28;20030;-54
2023/12/04 07:20:24;;;;;;;33.97;15.43;;;;;;;2.74;75.59;99997.78;8304904;28;20041;-52
2023/12/04 07:24:26;;;;;;;27.38;12.85;;;;;;;2.80;76.09;99994.69;8339422;28;20041;-55
2023/12/04 07:28:26;;;;;;;29.33;15.18;;;;;;;2.80;75.52;99996.53;8358770;28;20452;-57
2023/12/04 07:32:27;;;;;;;29.73;13.48;;;;;;;2.81;76.13;99996.41;8357906;28;20110;-56
2023/12/04 07:36:28;;;;;;;26.98;14.13;;;;;;;2.84;76.75;100000.69;8355701;28;20044;-56
2023/12/04 07:40:28;;;;;;;28.52;14.23;;;;;;;2.91;75.77;99994.81;8359145;28;20029;-57
2023/12/04 07:44:29;;;;;;;27.48;13.95;;;;;;;2.86;75.61;99988.94;8356489;28;20044;-56
2023/12/04 07:48:30;;;;;;;26.73;13.35;;;;;;;2.97;75.82;99999.75;8389899;28;20031;-57
2023/12/04 07:52:31;;;;;;;30.08;13.68;;;;;;;3.11;75.20;99994.28;8354934;28;20044;-57
2023/12/04 07:56:31;;;;;;;31.83;15.02;;;;;;;2.97;75.04;99989.06;8357737;28;20336;-57
2023/12/04 08:00:32;;;;;;;28.15;14.60;;;;;;;3.12;74.95;99972.00;8356418;28;20032;-57
2023/12/04 08:04:33;;;;;;;25.40;12.95;;;;;;;3.12;74.63;99987.13;8355921;28;20086;-57
2023/12/04 08:08:33;;;;;;;28.88;14.07;;;;;;;3.15;74.37;99977.09;8358862;28;20044;-57
2023/12/04 08:12:34;;;;;;;24.27;11.57;;;;;;;3.28;73.99;99977.09;8355801;28;20062;-56
2023/12/04 08:16:34;;;;;;;23.90;11.90;;;;;;;3.20;74.12;99974.94;8355638;28;20564;-54
2023/12/04 08:20:34;;;;;;;23.90;11.75;;;;;;;3.28;74.09;99967.25;8357697;28;20518;-57
2023/12/04 08:24:35;;;;;;;23.17;11.25;;;;;;;3.32;74.00;99952.72;8351771;28;20144;-55
2023/12/04 08:28:37;;;;;;;25.67;11.32;;;;;;;3.21;74.47;99952.66;8354701;28;20037;-56
2023/12/04 08:32:37;;;;;;;22.77;11.63;;;;;;;3.31;74.34;99951.03;8355836;28;20123;-56
2023/12/04 08:36:38;;;;;;;23.45;12.82;;;;;;;3.25;73.31;99948.78;8352985;28;20048;-56
2023/12/04 08:40:39;;;;;;;24.60;11.45;;;;;;;3.32;72.94;99936.69;8355338;28;20052;-57
2023/12/04 08:44:40;;;;;;;21.25;11.45;;;;;;;3.36;72.91;99937.34;8352952;28;20072;-57
2023/12/04 08:48:41;;;;;;;29.00;12.98;;;;;;;3.36;72.56;99930.16;8355806;28;20045;-57
2023/12/04 08:52:42;;;;;;;25.15;12.32;;;;;;;3.42;72.17;99932.41;8353474;28;20041;-56
2023/12/04 08:56:43;;;;;;;20.42;11.65;;;;;;;3.39;71.93;99927.28;8356251;28;20041;-55
2023/12/04 09:00:44;;;;;;;22.52;11.57;;;;;;;3.38;72.06;99914.03;8354092;28;20132;-56
2023/12/04 09:04:45;;;;;;;29.98;12.65;;;;;;;3.40;72.35;99918.31;8353951;28;20049;-56
2023/12/04 09:08:45;;;;;;;21.90;12.27;;;;;;;3.39;71.98;99919.25;8356503;28;20051;-57
2023/12/04 09:12:46;;;;;;;25.08;12.55;;;;;;;3.45;72.01;99916.16;8353171;28;20080;-56
2023/12/04 09:16:46;;;;;;;27.42;12.15;;;;;;;3.45;71.91;99913.47;8355047;28;20522;-57
2023/12/04 09:20:47;;;;;;;27.88;12.50;;;;;;;3.43;72.40;99912.75;8355064;28;20068;-56
2023/12/04 09:24:48;;;;;;;28.00;12.63;;;;;;;3.44;73.07;99901.09;8352206;28;20049;-55
2023/12/04 09:28:48;;;;;;;23.92;11.50;;;;;;;3.42;72.56;99892.31;8352878;28;20041;-57
2023/12/04 09:32:48;;;;;;;24.92;12.55;;;;;;;3.51;72.19;99896.16;8354926;28;20072;-56
2023/12/04 09:36:49;;;;;;;24.33;12.02;;;;;;;3.42;72.17;99884.31;8352927;28;20049;-56
2023/12/04 09:40:52;;;;;;;23.95;11.43;;;;;;;3.58;71.37;99876.91;8353419;28;20471;-55
2023/12/04 09:44:54;;;;;;;24.88;11.90;;;;;;;3.67;71.81;99876.22;8352153;28;20045;-56
2023/12/04 09:48:55;;;;;;;24.65;12.27;;;;;;;3.60;71.93;99871.44;8353672;28;20037;-55
2023/12/04 09:52:57;;;;;;;25.40;11.95;;;;;;;3.61;71.94;99863.31;8349924;28;20039;-55
2023/12/04 09:56:58;;;;;;;24.42;12.05;;;;;;;3.59;71.33;99873.25;8353841;28;20033;-54
2023/12/04 10:01:00;;;;;;;23.15;10.50;;;;;;;3.76;70.98;99864.81;8352561;28;20045;-57
2023/12/04 10:05:04;;;;;;;26.13;12.23;;;;;;;3.80;70.70;99862.78;8354421;28;20044;-57
2023/12/04 10:09:11;;;;;;;18.98;10.38;;;;;;;3.84;71.25;99849.09;8353759;28;20048;-57
2023/12/04 10:13:12;;;;;;;21.73;10.93;;;;;;;3.80;71.05;99847.63;8355723;28;20045;-55
2023/12/04 10:17:15;;;;;;;19.40;9.75;;;;;;;3.83;71.70;99847.38;8353737;28;20621;-57
2023/12/04 10:21:16;;;;;;;21.90;11.75;;;;;;;3.74;71.32;99837.38;8352622;28;20107;-56
2023/12/04 10:25:18;;;;;;;19.45;10.05;;;;;;;3.87;71.13;99832.81;8351433;28;20036;-57
2023/12/04 10:29:18;;;;;;;23.50;10.73;;;;;;;3.86;71.34;99825.78;8353996;28;20037;-55
2023/12/04 10:33:19;;;;;;;22.58;10.77;;;;;;;4.01;71.18;99818.41;8353240;28;20041;-55
2023/12/04 10:37:20;;;;;;;20.50;10.05;;;;;;;3.92;71.75;99822.63;8376864;28;20040;-56
2023/12/04 10:41:20;;;;;;;19.73;10.48;;;;;;;3.92;71.68;99819.97;8351579;28;20047;-56
2023/12/04 10:45:22;;;;;;;17.45;10.05;;;;;;;4.16;71.44;99817.25;8351343;28;20041;-58
2023/12/04 10:49:26;;;;;;;16.45;8.82;;;;;;;4.16;71.73;99806.53;8352433;28;20036;-57
2023/12/04 10:53:26;;;;;;;18.10;10.40;;;;;;;4.12;71.58;99814.91;8348725;28;20074;-55
2023/12/04 10:57:31;;;;;;;19.80;10.45;;;;;;;4.05;72.49;99810.03;8353795;28;20847;-57
2023/12/04 11:01:32;;;;;;;35.83;16.33;;;;;;;4.06;73.30;99795.69;8351420;28;20041;-58
2023/12/04 11:05:37;;;;;;;30.08;12.65;;;;;;;4.03;75.02;99789.75;8348901;28;20049;-57
2023/12/04 11:09:38;;;;;;;33.50;15.98;;;;;;;4.07;74.49;99783.19;8352929;28;20036;-58
2023/12/04 11:13:41;;;;;;;22.90;10.30;;;;;;;4.06;75.04;99771.63;8351591;28;20030;-56
2023/12/04 11:17:46;;;;;;;18.40;9.73;;;;;;;4.06;75.11;99774.28;8353631;28;20487;-55
2023/12/04 11:21:47;;;;;;;18.33;10.43;;;;;;;4.03;76.45;99761.16;8353035;28;20090;-55
2023/12/04 11:25:48;;;;;;;21.23;11.23;;;;;;;3.90;77.91;99731.00;8350263;28;20037;-57
2023/12/04 11:29:51;;;;;;;22.42;10.20;;;;;;;3.87;78.95;99719.66;8359126;28;20036;-55
2023/12/04 11:33:51;;;;;;;22.75;11.02;;;;;;;3.90;79.58;99714.94;8357502;28;20069;-54
2023/12/04 11:37:52;;;;;;;22.58;11.15;;;;;;;3.97;79.31;99710.00;8358554;28;20533;-56
2023/12/04 11:41:53;;;;;;;23.42;10.85;;;;;;;4.09;79.22;99709.88;8356837;28;20483;-56
2023/12/04 11:46:06;;;;;;;20.63;11.25;;;;;;;4.13;79.20;99698.94;8357412;28;20714;-55
2023/12/04 11:50:08;;;;;;;23.98;11.27;;;;;;;4.19;79.56;99703.81;8356909;28;20033;-56
2023/12/04 11:54:10;;;;;;;26.15;12.90;;;;;;;4.12;79.97;99682.06;8354450;28;20029;-55
2023/12/04 11:58:12;;;;;;;22.40;10.80;;;;;;;4.13;79.80;99677.53;8356221;28;20036;-56
2023/12/04 12:02:13;;;;;;;22.88;11.45;;;;;;;4.18;79.86;99675.38;8357275;28;20033;-55
2023/12/04 12:06:14;;;;;;;23.08;12.00;;;;;;;4.19;79.39;99667.22;8353502;28;20063;-56
2023/12/04 12:10:16;;;;;;;26.85;13.25;;;;;;;4.22;78.34;99655.41;8343251;28;20044;-55
2023/12/04 12:14:21;;;;;;;22.70;10.73;;;;;;;4.22;78.31;99639.38;8339087;28;20207;-56
2023/12/04 12:18:23;;;;;;;22.25;10.65;;;;;;;4.29;78.41;99640.56;8341038;28;20115;-56
2023/12/04 12:22:23;;;;;;;25.17;11.85;;;;;;;4.42;77.64;99633.28;8334964;28;20042;-55
2023/12/04 12:26:24;;;;;;;22.00;10.18;;;;;;;4.59;77.70;99632.75;8340907;28;20121;-55
2023/12/04 12:30:24;;;;;;;19.15;10.20;;;;;;;4.56;77.85;99622.28;8341230;28;20029;-56
2023/12/04 12:34:27;;;;;;;20.10;10.20;;;;;;;4.54;78.48;99617.06;8351208;28;20356;-55
2023/12/04 12:38:27;;;;;;;20.15;9.95;;;;;;;4.57;78.95;99607.97;8338561;28;20562;-56
2023/12/04 12:42:29;;;;;;;22.83;10.30;;;;;;;4.51;78.82;99603.09;8363328;28;20467;-55
2023/12/04 12:46:29;;;;;;;17.83;9.50;;;;;;;4.48;79.64;99587.31;8370708;28;20037;-56
2023/12/04 12:50:31;;;;;;;22.40;10.82;;;;;;;4.43;79.57;99592.16;8388911;28;20040;-56
2023/12/04 12:54:32;;;;;;;21.30;10.60;;;;;;;4.57;79.37;99571.31;8349410;28;20096;-55
2023/12/04 12:58:34;;;;;;;20.98;9.95;;;;;;;4.49;79.86;99579.16;8350415;28;20522;-57
2023/12/04 13:02:37;;;;;;;16.40;9.13;;;;;;;4.50;79.86;99566.59;8352273;28;20060;-56
2023/12/04 13:06:38;;;;;;;16.65;9.10;;;;;;;4.48;80.51;99533.78;8352652;28;20047;-56
2023/12/04 13:10:40;;;;;;;16.42;9.05;;;;;;;4.41;81.00;99528.06;8353337;28;20041;-56
2023/12/04 13:14:41;;;;;;;17.05;9.57;;;;;;;4.25;81.88;99506.25;8350672;28;20034;-56
2023/12/04 13:18:42;;;;;;;18.40;9.15;;;;;;;4.31;81.84;99511.09;8350892;28;20500;-56
2023/12/04 13:22:42;;;;;;;18.92;9.98;;;;;;;4.31;82.55;99510.22;8349247;28;20052;-56
2023/12/04 13:26:44;;;;;;;17.95;9.88;;;;;;;4.34;82.65;99499.28;8353354;28;20123;-56
2023/12/04 13:30:44;;;;;;;19.63;10.50;;;;;;;4.37;82.00;99486.50;8344825;28;20136;-59
2023/12/04 13:34:46;;;;;;;20.85;10.48;;;;;;;4.33;82.67;99481.53;8350753;28;20044;-55
2023/12/04 13:38:47;;;;;;;21.92;10.02;;;;;;;4.38;82.46;99476.63;8352094;28;20110;-57
2023/12/04 13:43:51;;;;;;;20.08;11.05;;;;;;;4.29;83.08;99477.41;8351041;28;20128;-57
2023/12/04 13:47:07;;;;;;;17.23;9.25;;;;;;;4.30;82.78;99471.94;8352125;28;20037;-57
2023/12/04 13:51:09;;;;;;;19.52;10.55;;;;;;;4.27;83.00;99479.38;8352044;28;20082;-56
2023/12/04 13:59:32;;;;;;;19.75;10.57;;;;;;;4.19;83.07;99466.63;8357601;28;20057;-58
2023/12/04 14:03:34;;;;;;;17.58;10.40;;;;;;;4.24;83.73;99460.91;8349198;28;20041;-58
2023/12/04 14:07:34;;;;;;;28.20;13.77;;;;;;;4.15;84.18;99451.81;8352641;28;20420;-58
2023/12/04 14:11:36;;;;;;;23.00;12.27;;;;;;;4.19;83.79;99447.03;8349912;28;20505;-57
2023/12/04 14:15:37;;;;;;;18.98;9.07;;;;;;;4.13;84.35;99432.38;8351839;28;20048;-56
2023/12/04 14:19:39;;;;;;;19.88;10.88;;;;;;;4.23;84.17;99421.75;8350930;28;20036;-58
2023/12/04 14:23:39;;;;;;;16.52;9.25;;;;;;;4.08;84.49;99419.38;8346591;28;20076;-57
2023/12/04 14:27:40;;;;;;;16.55;9.38;;;;;;;4.17;84.43;99404.38;8352665;28;20048;-54
2023/12/04 14:31:41;;;;;;;14.85;8.63;;;;;;;4.14;84.44;99406.47;8345500;28;20424;-56
2023/12/04 14:35:43;;;;;;;15.50;8.32;;;;;;;4.16;84.22;99400.03;8371212;28;20053;-57
2023/12/04 14:39:45;;;;;;;17.33;9.57;;;;;;;4.15;84.78;99392.13;8361402;28;20037;-58
2023/12/04 14:43:46;;;;;;;16.05;8.98;;;;;;;4.09;84.92;99394.31;8367103;28;20040;-56
2023/12/04 14:47:48;;;;;;;16.95;8.60;;;;;;;4.11;85.21;99390.69;8374449;28;20566;-55
2023/12/04 14:51:48;;;;;;;16.98;9.02;;;;;;;4.03;85.98;99392.16;8366671;28;20120;-55
2023/12/04 14:57:41;;;;;;;16.40;9.88;;;;;;;4.10;86.57;99379.13;8342016;28;20048;-56
2023/12/04 15:09:45;;;;;;;17.27;9.82;;;;;;;3.80;88.77;99361.16;8368705;27;20380;-55
2023/12/04 15:17:48;;;;;;;16.85;10.05;;;;;;;3.78;89.47;99359.56;8323418;27;20377;-54
2023/12/04 15:21:33;;;;;;;18.80;10.68;;;;;;;3.74;90.28;99361.66;8341357;28;20030;-55
2023/12/04 15:25:33;;;;;;;19.67;10.75;;;;;;;3.78;90.41;99356.88;8334105;28;20041;-54
2023/12/04 15:29:34;;;;;;;19.85;9.85;;;;;;;3.75;91.27;99341.97;8330094;28;20041;-54
2023/12/04 15:33:34;;;;;;;18.83;10.32;;;;;;;3.62;92.58;99327.94;8327972;28;20060;-54
2023/12/04 15:37:35;;;;;;;18.58;9.98;;;;;;;3.73;92.55;99330.53;8330046;28;20049;-54
2023/12/04 15:41:36;;;;;;;17.52;10.25;;;;;;;3.62;92.73;99333.25;8326752;28;20616;-54
2023/12/04 15:45:36;;;;;;;29.25;16.75;;;;;;;3.66;92.54;99324.00;8325551;28;20050;-55
2023/12/04 15:49:37;;;;;;;25.83;14.05;;;;;;;3.63;92.49;99332.28;8326520;28;20037;-53
2023/12/04 15:53:38;;;;;;;20.83;11.65;;;;;;;3.68;92.07;99319.41;8324345;28;20034;-52
2023/12/04 15:57:39;;;;;;;20.08;11.30;;;;;;;3.73;91.79;99317.19;8327314;28;20107;-54
2023/12/04 16:01:39;;;;;;;19.08;10.48;;;;;;;3.85;90.98;99326.84;8328205;28;20488;-54
2023/12/04 16:05:41;;;;;;;17.60;10.38;;;;;;;3.89;90.40;99312.28;8327698;28;20190;-55
2023/12/04 16:09:42;;;;;;;15.43;8.75;;;;;;;3.89;89.99;99322.97;8329730;28;20207;-54
2023/12/04 16:13:42;;;;;;;16.77;9.38;;;;;;;3.94;89.82;99326.09;8329234;28;20160;-54
2023/12/04 16:17:42;;;;;;;15.65;9.10;;;;;;;3.98;89.93;99316.84;8324565;28;20042;-55
2023/12/04 16:21:43;;;;;;;16.40;9.38;;;;;;;3.96;89.70;99316.13;8327045;28;20086;-52
2023/12/04 16:25:44;;;;;;;17.15;9.75;;;;;;;4.01;89.87;99305.03;8319088;28;20041;-54
2023/12/04 16:29:44;;;;;;;19.23;11.07;;;;;;;3.98;90.43;99303.47;8304038;28;20042;-54
2023/12/04 16:33:45;;;;;;;24.95;12.55;;;;;;;3.99;89.93;99296.28;8302825;28;20073;-55
2023/12/04 16:37:46;;;;;;;22.65;11.57;;;;;;;3.97;90.14;99293.75;8303420;28;20547;-55
2023/12/04 16:41:47;;;;;;;21.77;12.75;;;;;;;3.98;90.69;99282.09;8305784;28;20045;-54
2023/12/04 16:45:47;;;;;;;36.95;17.08;;;;;;;3.92;91.07;99285.28;8302448;28;20116;-54
2023/12/04 16:49:49;;;;;;;46.42;20.77;;;;;;;3.90;91.75;99275.69;8304745;28;20036;-56
2023/12/04 16:53:53;;;;;;;;;;;;;;;3.88;92.47;99275.81;8302559;28;20508;-56
2023/12/04 16:57:59;;;;;;;22.23;12.43;;;;;;;3.88;92.76;99269.63;8304249;28;19916;-55
2023/12/04 17:01:59;;;;;;;20.00;11.45;;;;;;;3.87;93.38;99268.78;8301896;28;20034;-56
2023/12/04 17:06:00;;;;;;;18.88;10.70;;;;;;;3.89;93.44;99263.31;8305156;28;20073;-55
2023/12/04 17:10:00;;;;;;;20.00;11.13;;;;;;;3.89;94.02;99263.31;8301612;28;20387;-56
2023/12/04 17:14:01;;;;;;;23.90;12.05;;;;;;;3.91;94.32;99248.00;8298971;28;20463;-57
2023/12/04 17:18:01;;;;;;;16.17;10.38;;;;;;;3.89;94.88;99244.59;8281950;28;20273;-57
2023/12/04 17:22:02;;;;;;;21.70;12.30;;;;;;;3.75;96.08;99227.03;8279016;28;20048;-55
2023/12/04 17:26:03;;;;;;;26.92;12.43;;;;;;;3.82;96.45;99227.38;8290218;28;20127;-56
2023/12/04 17:30:05;;;;;;;22.83;13.18;;;;;;;3.78;97.10;99221.44;8298212;28;20391;-55
2023/12/04 17:34:05;;;;;;;23.45;12.75;;;;;;;3.71;97.46;99214.94;8297588;28;20045;-56
2023/12/04 17:38:05;;;;;;;25.20;12.75;;;;;;;3.75;97.78;99213.69;8294770;28;20041;-55
2023/12/04 17:42:06;;;;;;;23.52;13.63;;;;;;;3.73;98.15;99214.81;8298590;28;20087;-58
2023/12/04 17:46:08;;;;;;;25.02;13.60;;;;;;;3.76;98.64;99206.53;8296669;28;20067;-58
2023/12/04 17:50:09;;;;;;;26.60;13.77;;;;;;;3.74;98.17;99206.66;8302923;28;20083;-56
2023/12/04 17:54:10;;;;;;;29.83;15.88;;;;;;;3.75;99.33;99203.00;8302715;28;20049;-57
2023/12/04 17:58:14;;;;;;;36.60;17.42;;;;;;;3.74;99.19;99197.78;8297345;28;20045;-57
2023/12/04 18:02:15;;;;;;;27.60;15.05;;;;;;;3.75;99.54;99196.78;8300725;28;20037;-55
2023/12/04 18:06:25;;;;;;;22.70;14.25;;;;;;;3.78;99.81;99197.38;8309515;28;20092;-54
2023/12/04 18:10:26;;;;;;;28.50;16.40;;;;;;;3.74;99.71;99189.75;8302023;28;20041;-56
2023/12/04 18:14:26;;;;;;;25.40;14.27;;;;;;;3.82;99.99;99176.59;8276126;28;20049;-56
2023/12/04 18:18:27;;;;;;;26.73;15.35;;;;;;;3.78;99.85;99173.34;8270453;28;20045;-55
2023/12/04 18:22:27;;;;;;;29.70;14.07;;;;;;;3.77;100.00;99160.09;8287123;28;20041;-56
2023/12/04 18:26:28;;;;;;;28.40;15.82;;;;;;;3.82;100.00;99145.38;8295382;28;20099;-58
2023/12/04 18:30:29;;;;;;;30.85;15.05;;;;;;;3.85;99.83;99145.09;8297316;28;20044;-56
2023/12/04 18:34:29;;;;;;;32.47;14.98;;;;;;;3.83;100.00;99138.19;8292937;28;20534;-56
2023/12/04 18:38:40;;;;;;;25.27;13.65;;;;;;;3.82;100.00;99140.00;8294454;28;20304;-55
2023/12/04 18:42:41;;;;;;;29.67;15.02;;;;;;;3.79;100.00;99126.91;8302152;28;20434;-55
2023/12/04 18:46:43;;;;;;;29.30;15.35;;;;;;;3.82;100.00;99137.34;8293568;28;20066;-55
2023/12/04 18:50:44;;;;;;;34.13;15.02;;;;;;;3.81;100.00;99130.31;8291569;28;20046;-56
2023/12/04 18:54:44;;;;;;;25.95;14.77;;;;;;;3.82;100.00;99123.16;8297153;28;20053;-56
2023/12/04 18:58:45;;;;;;;25.45;14.75;;;;;;;3.89;100.00;99124.31;8291985;28;20435;-55